FWKI/LLW METAR and TAF weather

Enter ICAO airport designator
Station Type Date Time Source
FWKI METAR 2019/12/16 00:00 UTC NOAA

FWKI 160000Z 00000KT CAVOK 20/19 Q1016 NOSIG


Station Type Date Time Source
FWKI Decoded METAR 2019/12/16 00:00 UTC NOAA

Lilongwe International Airport, Malawi (FWKI) 13-47S 033-46E 1229M
Dec 15, 2019 - 07:00 PM EST / 2019.12.16 0000 UTC
Wind: Calm:0
Visibility: greater than 7 mile(s):0
Temperature: 68 F (20 C)
Dew Point: 66 F (19 C)
Relative Humidity: 93%
Pressure (altimeter): 30.00 in. Hg (1016 hPa)
ob: FWKI 160000Z 00000KT CAVOK 20/19 Q1016 NOSIG
cycle: 0

Station Type Date Time Source
FWKI TAF 2019/12/15 18:39 UTC NOAA

TAF TAF FWKI 151530Z 1518/1624 09007KT 9999 FEW030CB SCT080
BECMG 1518/1520 VRB02KT 9999 FEW032CB SCT080
BECMG 1606/1608 VRB02KT 9999 FEW015 SCT080 PROB30
TEMPO 1609/1613 VRB05KT 8000 -TSRA BKN022 FEW025CB BKN080
BECMG 1615/1617 09008KT 9999 FEW025CB BKN080

Example: see airport list